Time;durP1;ratioP1;P1;durP2;ratioP2;P2;SDS_P1;SDS_P2;PMS_P1;PMS_P2;Temp;Humidity;BMP_temperature;BMP_pressure;BME280_temperature;BME280_humidity;BME280_pressure;Samples;Min_cycle;Max_cycle;Signal;HPM_P1;HPM_P2
2023/04/11 00:00:50;;;;;;;4.72;1.00;;;;;;;;;;5027458;28;20202;-77
2023/04/11 00:03:15;;;;;;;4.32;1.00;;;;;;;;;;5045621;28;20672;-74
2023/04/11 00:05:41;;;;;;;5.68;0.85;;;;;;;;;;5041782;28;20182;-75
2023/04/11 00:08:06;;;;;;;3.70;0.80;;;;;;;;;;5042638;28;20212;-72
2023/04/11 00:10:32;;;;;;;2.42;0.95;;;;;;;;;;5044146;28;20547;-72
2023/04/11 00:12:57;;;;;;;6.75;1.05;;;;;;;;;;5047540;28;20586;-72
2023/04/11 00:15:23;;;;;;;6.60;0.90;;;;;;;;;;5047768;28;20300;-73
2023/04/11 00:17:49;;;;;;;6.85;1.05;;;;;;;;;;5043502;28;20519;-73
2023/04/11 00:20:15;;;;;;;7.80;1.27;;;;;;;;;;5045291;28;20189;-72
2023/04/11 00:22:42;;;;;;;6.78;1.10;;;;;;;;;;5046146;28;20185;-72
2023/04/11 00:25:07;;;;;;;7.25;1.23;;;;;;;;;;5045449;28;20208;-72
2023/04/11 00:27:33;;;;;;;4.85;1.48;;;;;;;;;;5046327;28;20225;-72
2023/04/11 00:29:58;;;;;;;7.53;1.05;;;;;;;;;;5038709;28;20194;-72
2023/04/11 00:32:24;;;;;;;4.53;1.17;;;;;;;;;;5038526;28;20533;-72
2023/04/11 00:34:50;;;;;;;4.50;1.10;;;;;;;;;;5038867;28;20186;-72
2023/04/11 00:37:16;;;;;;;7.32;1.10;;;;;;;;;;5044514;28;20181;-71
2023/04/11 00:39:43;;;;;;;6.43;1.70;;;;;;;;;;5044905;28;20268;-71
2023/04/11 00:42:09;;;;;;;8.17;1.63;;;;;;;;;;5023207;28;20554;-70
2023/04/11 00:44:35;;;;;;;4.50;1.93;;;;;;;;;;5047467;28;20706;-71
2023/04/11 00:47:02;;;;;;;8.82;2.03;;;;;;;;;;5039426;28;20181;-71
2023/04/11 00:49:29;;;;;;;4.68;1.55;;;;;;;;;;5027330;28;20209;-71
2023/04/11 00:51:55;;;;;;;6.68;1.85;;;;;;;;;;5042222;28;20253;-70
2023/04/11 00:54:20;;;;;;;10.07;1.98;;;;;;;;;;5041252;28;20506;-71
2023/04/11 00:56:45;;;;;;;7.07;1.80;;;;;;;;;;5045039;28;20198;-71
2023/04/11 00:59:11;;;;;;;7.20;2.10;;;;;;;;;;5034968;28;20188;-71
2023/04/11 01:01:37;;;;;;;7.17;2.07;;;;;;;;;;5039281;28;20232;-71
2023/04/11 01:04:04;;;;;;;9.73;2.73;;;;;;;;;;5042519;28;20216;-71
2023/04/11 01:06:30;;;;;;;11.77;2.17;;;;;;;;;;5045918;28;20190;-72
2023/04/11 01:08:56;;;;;;;9.95;2.50;;;;;;;;;;5044484;28;20224;-71
2023/04/11 01:11:22;;;;;;;11.02;2.45;;;;;;;;;;5038417;28;20558;-70
2023/04/11 01:13:49;;;;;;;17.38;3.05;;;;;;;;;;5042786;28;20208;-69
2023/04/11 01:16:15;;;;;;;15.15;3.47;;;;;;;;;;5039311;28;20275;-69
2023/04/11 01:18:40;;;;;;;13.10;3.00;;;;;;;;;;5037581;28;20554;-70
2023/04/11 01:21:06;;;;;;;17.20;3.40;;;;;;;;;;5042448;28;20185;-70
2023/04/11 01:23:33;;;;;;;11.57;2.38;;;;;;;;;;5046599;28;20197;-70
2023/04/11 01:25:58;;;;;;;15.03;3.00;;;;;;;;;;5048047;28;20197;-69
2023/04/11 01:28:24;;;;;;;16.67;3.65;;;;;;;;;;5047857;28;20217;-70
2023/04/11 01:30:49;;;;;;;20.08;4.35;;;;;;;;;;5042606;28;20185;-70
2023/04/11 01:33:15;;;;;;;22.93;3.10;;;;;;;;;;5049125;28;20531;-70
2023/04/11 01:35:41;;;;;;;17.57;3.40;;;;;;;;;;5043330;28;20212;-70
2023/04/11 01:38:06;;;;;;;18.45;3.92;;;;;;;;;;5049080;28;20660;-70
2023/04/11 01:40:32;;;;;;;21.10;3.33;;;;;;;;;;5047881;28;20267;-71
2023/04/11 01:42:58;;;;;;;23.75;4.05;;;;;;;;;;5050570;28;20579;-69
2023/04/11 01:45:28;;;;;;;25.92;4.75;;;;;;;;;;5045487;28;20683;-70
2023/04/11 01:47:53;;;;;;;26.73;5.43;;;;;;;;;;5049539;28;20205;-70
2023/04/11 01:50:19;;;;;;;12.55;3.35;;;;;;;;;;5048874;28;20182;-70
2023/04/11 01:52:46;;;;;;;23.30;4.15;;;;;;;;;;5049633;28;20220;-69
2023/04/11 01:55:12;;;;;;;17.58;4.35;;;;;;;;;;5045387;28;20653;-69
2023/04/11 01:57:37;;;;;;;23.48;4.93;;;;;;;;;;5043319;28;20193;-70
2023/04/11 02:00:05;;;;;;;21.02;3.97;;;;;;;;;;5047981;28;20205;-70
2023/04/11 02:02:30;;;;;;;22.02;4.35;;;;;;;;;;5048838;28;20185;-70
2023/04/11 02:04:55;;;;;;;25.38;4.50;;;;;;;;;;5046550;28;20190;-68
2023/04/11 02:07:21;;;;;;;35.08;4.35;;;;;;;;;;5044503;28;20438;-69
2023/04/11 02:09:46;;;;;;;28.10;5.22;;;;;;;;;;5036486;28;20192;-69
2023/04/11 02:12:12;;;;;;;25.70;4.57;;;;;;;;;;5050076;28;20189;-69
2023/04/11 02:14:44;;;;;;;27.35;4.25;;;;;;;;;;5045784;28;20703;-69
2023/04/11 02:17:11;;;;;;;33.45;5.63;;;;;;;;;;5036727;28;20626;-68
2023/04/11 02:19:37;;;;;;;23.52;4.88;;;;;;;;;;5045837;28;20277;-70
2023/04/11 02:22:02;;;;;;;27.90;5.53;;;;;;;;;;5049500;28;20630;-68
2023/04/11 02:24:28;;;;;;;28.80;4.80;;;;;;;;;;5049580;28;20205;-69
2023/04/11 02:26:53;;;;;;;31.05;4.50;;;;;;;;;;5046906;28;20617;-69
2023/04/11 02:29:19;;;;;;;35.03;5.07;;;;;;;;;;5042507;28;20229;-68
2023/04/11 02:31:47;;;;;;;32.85;6.18;;;;;;;;;;5046826;28;20491;-69
2023/04/11 02:34:13;;;;;;;30.80;4.85;;;;;;;;;;5047290;28;20687;-68
2023/04/11 02:36:38;;;;;;;23.52;4.50;;;;;;;;;;5045194;28;20201;-68
2023/04/11 02:39:03;;;;;;;27.57;4.33;;;;;;;;;;5045133;28;20514;-68
2023/04/11 02:41:29;;;;;;;27.02;4.38;;;;;;;;;;5047359;28;20280;-68
2023/04/11 02:43:54;;;;;;;31.92;5.65;;;;;;;;;;5047508;28;20189;-69
2023/04/11 02:46:21;;;;;;;21.70;3.88;;;;;;;;;;5047289;28;20182;-69
2023/04/11 02:48:46;;;;;;;23.17;3.38;;;;;;;;;;5047829;28;20205;-69
2023/04/11 02:51:11;;;;;;;23.05;3.63;;;;;;;;;;5048890;28;20247;-68
2023/04/11 02:53:37;;;;;;;26.77;3.95;;;;;;;;;;5046508;28;20197;-69
2023/04/11 02:56:02;;;;;;;20.88;3.58;;;;;;;;;;5044358;28;20653;-68
2023/04/11 02:58:28;;;;;;;26.05;2.95;;;;;;;;;;5042150;28;20594;-68
2023/04/11 03:00:53;;;;;;;21.25;2.97;;;;;;;;;;5041679;28;20267;-69
2023/04/11 03:03:18;;;;;;;19.67;2.92;;;;;;;;;;5044655;28;20621;-68
2023/04/11 03:05:44;;;;;;;24.42;3.65;;;;;;;;;;5042251;28;20194;-68
2023/04/11 03:08:09;;;;;;;19.80;2.65;;;;;;;;;;5043663;28;20209;-69
2023/04/11 03:10:35;;;;;;;14.52;2.85;;;;;;;;;;5044886;28;20197;-69
2023/04/11 03:13:00;;;;;;;22.13;2.60;;;;;;;;;;5045471;28;20264;-69
2023/04/11 03:15:26;;;;;;;14.45;2.47;;;;;;;;;;5046291;28;20193;-68
2023/04/11 03:17:52;;;;;;;20.60;2.50;;;;;;;;;;5043813;28;20181;-69
2023/04/11 03:20:18;;;;;;;16.90;2.20;;;;;;;;;;5045222;28;20247;-69
2023/04/11 03:22:47;;;;;;;13.00;2.13;;;;;;;;;;5046908;28;20177;-68
2023/04/11 03:25:13;;;;;;;13.20;2.67;;;;;;;;;;5043784;28;20275;-68
2023/04/11 03:27:38;;;;;;;15.73;2.50;;;;;;;;;;5046572;28;20319;-68
2023/04/11 03:30:04;;;;;;;18.95;2.13;;;;;;;;;;5046781;28;20173;-69
2023/04/11 03:32:30;;;;;;;13.85;1.77;;;;;;;;;;5043084;28;20181;-69
2023/04/11 03:34:56;;;;;;;12.73;2.10;;;;;;;;;;5046138;28;20557;-68
2023/04/11 03:37:22;;;;;;;19.48;2.33;;;;;;;;;;5046136;28;20600;-70
2023/04/11 03:39:47;;;;;;;10.98;1.70;;;;;;;;;;5044543;28;20264;-68
2023/04/11 03:42:12;;;;;;;7.43;1.40;;;;;;;;;;5038728;28;20213;-67
2023/04/11 03:44:38;;;;;;;9.45;1.25;;;;;;;;;;5045118;28;20193;-68
2023/04/11 03:47:03;;;;;;;11.82;1.63;;;;;;;;;;5044395;28;20262;-68
2023/04/11 03:49:29;;;;;;;10.43;2.00;;;;;;;;;;5045249;28;20300;-67
2023/04/11 03:51:54;;;;;;;10.27;1.20;;;;;;;;;;5047802;28;20201;-67
2023/04/11 03:54:20;;;;;;;8.23;1.40;;;;;;;;;;5045548;28;20193;-67
2023/04/11 03:56:45;;;;;;;6.40;1.33;;;;;;;;;;5043012;28;20273;-66
2023/04/11 03:59:11;;;;;;;8.15;0.98;;;;;;;;;;5043403;28;20216;-67
2023/04/11 04:01:36;;;;;;;9.23;1.20;;;;;;;;;;5044925;28;20684;-68
2023/04/11 04:04:03;;;;;;;8.43;1.33;;;;;;;;;;5043943;28;20664;-67
2023/04/11 04:06:29;;;;;;;7.35;1.13;;;;;;;;;;5045361;28;20182;-67
2023/04/11 04:08:54;;;;;;;13.73;1.40;;;;;;;;;;5044708;28;20291;-67
2023/04/11 04:11:20;;;;;;;6.18;1.08;;;;;;;;;;5037536;28;20186;-68
2023/04/11 04:13:45;;;;;;;7.38;1.45;;;;;;;;;;5044900;28;20641;-67
2023/04/11 04:16:11;;;;;;;8.43;1.70;;;;;;;;;;5039808;28;20675;-67
2023/04/11 04:18:36;;;;;;;10.88;1.50;;;;;;;;;;5041816;28;20295;-67
2023/04/11 04:21:01;;;;;;;7.40;1.08;;;;;;;;;;5043927;28;20234;-69
2023/04/11 04:23:28;;;;;;;12.55;1.95;;;;;;;;;;5044879;28;20383;-67
2023/04/11 04:25:56;;;;;;;13.20;1.65;;;;;;;;;;5042093;28;20193;-68
2023/04/11 04:28:24;;;;;;;13.98;1.80;;;;;;;;;;5038498;28;20696;-68
2023/04/11 04:30:52;;;;;;;8.25;1.40;;;;;;;;;;5043202;28;20189;-68
2023/04/11 04:33:21;;;;;;;7.97;1.88;;;;;;;;;;5038085;28;20201;-68
2023/04/11 04:35:47;;;;;;;11.43;1.85;;;;;;;;;;5046790;28;20181;-67
2023/04/11 04:38:16;;;;;;;9.48;1.20;;;;;;;;;;5042510;28;20189;-67
2023/04/11 04:40:42;;;;;;;9.27;1.45;;;;;;;;;;5040388;28;20193;-67
2023/04/11 04:43:10;;;;;;;10.45;1.88;;;;;;;;;;5042333;28;20486;-67
2023/04/11 04:45:35;;;;;;;7.88;1.20;;;;;;;;;;5038822;28;20228;-68
2023/04/11 04:48:01;;;;;;;10.88;1.13;;;;;;;;;;5038311;28;20220;-68
2023/04/11 04:50:26;;;;;;;10.57;1.98;;;;;;;;;;5038611;28;20549;-69
2023/04/11 04:52:52;;;;;;;9.23;1.27;;;;;;;;;;5040453;28;20201;-67
2023/04/11 04:55:17;;;;;;;9.40;1.92;;;;;;;;;;5039207;28;20206;-67
2023/04/11 04:57:42;;;;;;;10.98;1.85;;;;;;;;;;5051488;28;20189;-67
2023/04/11 05:00:10;;;;;;;10.00;1.63;;;;;;;;;;5047031;28;20214;-67
2023/04/11 05:02:36;;;;;;;10.57;1.67;;;;;;;;;;5043680;28;20201;-67
2023/04/11 05:05:03;;;;;;;11.30;1.40;;;;;;;;;;5048617;28;20182;-67
2023/04/11 05:07:28;;;;;;;13.55;1.80;;;;;;;;;;5040448;28;20200;-66
2023/04/11 05:09:54;;;;;;;8.63;1.65;;;;;;;;;;5048518;28;20629;-67
2023/04/11 05:12:25;;;;;;;13.68;2.00;;;;;;;;;;5046310;28;20193;-67
2023/04/11 05:14:51;;;;;;;10.45;1.55;;;;;;;;;;5048634;28;20232;-67
2023/04/11 05:17:17;;;;;;;8.52;1.73;;;;;;;;;;5045606;28;20548;-68
2023/04/11 05:19:42;;;;;;;11.85;1.50;;;;;;;;;;5044396;28;20189;-67
2023/04/11 05:22:08;;;;;;;9.05;1.70;;;;;;;;;;5047432;28;20200;-66
2023/04/11 05:24:33;;;;;;;9.27;1.70;;;;;;;;;;5047367;28;20679;-67
2023/04/11 05:26:59;;;;;;;7.82;1.55;;;;;;;;;;5046885;28;20197;-67
2023/04/11 05:29:25;;;;;;;9.23;1.60;;;;;;;;;;5043387;28;20366;-67
2023/04/11 05:31:50;;;;;;;10.43;1.60;;;;;;;;;;5043777;28;20178;-67
2023/04/11 05:34:15;;;;;;;8.20;1.60;;;;;;;;;;5039942;28;20960;-67
2023/04/11 05:36:41;;;;;;;6.30;1.55;;;;;;;;;;5038093;28;20190;-67
2023/04/11 05:39:06;;;;;;;6.45;1.23;;;;;;;;;;5047469;28;20178;-67
2023/04/11 05:41:32;;;;;;;11.48;1.67;;;;;;;;;;5045398;28;20235;-67
2023/04/11 05:43:57;;;;;;;9.90;1.65;;;;;;;;;;5046056;28;20185;-67
2023/04/11 05:46:23;;;;;;;6.32;1.38;;;;;;;;;;5048783;28;20516;-68
2023/04/11 05:48:48;;;;;;;6.75;1.65;;;;;;;;;;5039259;28;20224;-68
2023/04/11 05:51:13;;;;;;;10.88;1.58;;;;;;;;;;5045122;28;20543;-66
2023/04/11 05:53:39;;;;;;;9.85;1.60;;;;;;;;;;5047766;28;20193;-67
2023/04/11 05:56:05;;;;;;;11.32;1.60;;;;;;;;;;5040891;28;20422;-67
2023/04/11 05:58:30;;;;;;;6.22;1.55;;;;;;;;;;5035407;28;20223;-67
2023/04/11 06:00:58;;;;;;;8.13;1.77;;;;;;;;;;5040608;28;20267;-67
2023/04/11 06:03:24;;;;;;;8.05;1.60;;;;;;;;;;5042666;28;20613;-67
2023/04/11 06:05:49;;;;;;;10.10;1.33;;;;;;;;;;5040973;28;20209;-67
2023/04/11 06:08:15;;;;;;;9.60;1.42;;;;;;;;;;5042871;28;20210;-67
2023/04/11 06:10:40;;;;;;;9.27;1.45;;;;;;;;;;5041719;28;20190;-67
2023/04/11 06:13:06;;;;;;;6.82;1.45;;;;;;;;;;5047319;28;20189;-68
2023/04/11 06:15:31;;;;;;;7.28;1.50;;;;;;;;;;5047626;28;20553;-67
2023/04/11 06:17:57;;;;;;;11.60;2.35;;;;;;;;;;5044865;28;20186;-67
2023/04/11 06:20:23;;;;;;;5.65;1.38;;;;;;;;;;5043146;28;20272;-68
2023/04/11 06:22:51;;;;;;;8.18;1.98;;;;;;;;;;5047152;28;20200;-66
2023/04/11 06:25:17;;;;;;;6.20;1.20;;;;;;;;;;5043021;28;20630;-67
2023/04/11 06:27:43;;;;;;;6.72;1.45;;;;;;;;;;5042986;28;20236;-67
2023/04/11 06:30:09;;;;;;;10.18;1.85;;;;;;;;;;5042224;28;20198;-68
2023/04/11 06:32:35;;;;;;;9.30;1.08;;;;;;;;;;5043364;28;20249;-67
2023/04/11 06:35:00;;;;;;;7.88;1.35;;;;;;;;;;5043392;28;20194;-68
2023/04/11 06:37:26;;;;;;;8.95;1.60;;;;;;;;;;5042439;28;20194;-67
2023/04/11 06:39:51;;;;;;;5.95;1.10;;;;;;;;;;5034310;28;20190;-67
2023/04/11 06:42:16;;;;;;;9.05;1.88;;;;;;;;;;5040210;28;20622;-66
2023/04/11 06:44:43;;;;;;;18.30;2.75;;;;;;;;;;5042101;28;20700;-67
2023/04/11 06:47:08;;;;;;;7.63;1.45;;;;;;;;;;5045638;28;20622;-66
2023/04/11 06:49:34;;;;;;;10.43;1.67;;;;;;;;;;5040772;28;20216;-67
2023/04/11 06:51:59;;;;;;;9.00;1.45;;;;;;;;;;5047579;28;20436;-68
2023/04/11 06:54:25;;;;;;;7.88;1.42;;;;;;;;;;5045574;28;20611;-68
2023/04/11 06:56:50;;;;;;;8.70;1.27;;;;;;;;;;5044108;28;20288;-67
2023/04/11 06:59:20;;;;;;;11.35;1.40;;;;;;;;;;5040705;28;20185;-67
2023/04/11 07:01:46;;;;;;;6.47;1.15;;;;;;;;;;5043004;28;20723;-67
2023/04/11 07:04:11;;;;;;;6.03;0.93;;;;;;;;;;5042983;28;20182;-67
2023/04/11 07:06:37;;;;;;;8.10;1.55;;;;;;;;;;5041609;28;20225;-66
2023/04/11 07:09:03;;;;;;;5.35;0.85;;;;;;;;;;5044742;28;20209;-66
2023/04/11 07:11:29;;;;;;;8.13;1.10;;;;;;;;;;5039037;28;20690;-67
2023/04/11 07:13:55;;;;;;;7.22;1.30;;;;;;;;;;5042342;28;20186;-67
2023/04/11 07:16:21;;;;;;;8.10;1.10;;;;;;;;;;5042360;28;20236;-67
2023/04/11 07:18:46;;;;;;;6.88;1.10;;;;;;;;;;5039187;28;20190;-67
2023/04/11 07:21:13;;;;;;;12.68;1.55;;;;;;;;;;5040502;28;20247;-66
2023/04/11 07:23:39;;;;;;;4.85;1.10;;;;;;;;;;5041257;28;20474;-67
2023/04/11 07:26:05;;;;;;;6.63;1.38;;;;;;;;;;5045284;28;20262;-66
2023/04/11 07:28:30;;;;;;;6.57;1.40;;;;;;;;;;5038818;28;20341;-67
2023/04/11 07:30:56;;;;;;;10.65;1.40;;;;;;;;;;5041190;28;20271;-67
2023/04/11 07:33:22;;;;;;;8.15;1.35;;;;;;;;;;5036163;28;20197;-67
2023/04/11 07:35:47;;;;;;;5.50;1.13;;;;;;;;;;5043253;28;20489;-67
2023/04/11 07:38:14;;;;;;;5.53;0.98;;;;;;;;;;5042286;28;20181;-67
2023/04/11 07:40:39;;;;;;;10.20;1.80;;;;;;;;;;5040381;28;20575;-67
2023/04/11 07:43:05;;;;;;;10.75;1.50;;;;;;;;;;5037378;28;20288;-67
2023/04/11 07:45:32;;;;;;;8.88;1.23;;;;;;;;;;5040769;28;20247;-67
2023/04/11 07:47:58;;;;;;;8.27;1.17;;;;;;;;;;5037719;28;20293;-67
2023/04/11 07:50:24;;;;;;;9.30;1.27;;;;;;;;;;5040047;28;20198;-67
2023/04/11 07:52:50;;;;;;;10.00;1.40;;;;;;;;;;5034462;28;20266;-67
2023/04/11 07:55:15;;;;;;;11.25;1.67;;;;;;;;;;5037744;28;20189;-67
2023/04/11 07:57:41;;;;;;;8.30;1.38;;;;;;;;;;5034453;28;20232;-68
2023/04/11 08:00:08;;;;;;;10.32;1.20;;;;;;;;;;5040662;28;20224;-67
2023/04/11 08:02:34;;;;;;;8.85;1.23;;;;;;;;;;5027942;28;20194;-67
2023/04/11 08:04:59;;;;;;;6.57;1.10;;;;;;;;;;5035248;28;20703;-67
2023/04/11 08:07:25;;;;;;;8.93;1.42;;;;;;;;;;5030631;28;20190;-68
2023/04/11 08:09:50;;;;;;;7.05;1.38;;;;;;;;;;5045377;28;20225;-67
2023/04/11 08:12:15;;;;;;;4.40;1.10;;;;;;;;;;5030941;28;20213;-67
2023/04/11 08:14:41;;;;;;;7.18;1.13;;;;;;;;;;5045086;28;20634;-68
2023/04/11 08:17:06;;;;;;;10.07;1.55;;;;;;;;;;5032611;28;20231;-69
2023/04/11 08:19:31;;;;;;;5.45;1.15;;;;;;;;;;5039763;28;20307;-68
2023/04/11 08:21:57;;;;;;;15.60;1.90;;;;;;;;;;5027884;28;20186;-67
2023/04/11 08:24:22;;;;;;;7.20;1.30;;;;;;;;;;5033221;28;20201;-67
2023/04/11 08:26:47;;;;;;;9.57;1.60;;;;;;;;;;5036319;28;20185;-67
2023/04/11 08:29:13;;;;;;;11.80;1.88;;;;;;;;;;5040313;28;20291;-67
2023/04/11 08:31:44;;;;;;;8.77;1.67;;;;;;;;;;5032764;28;20199;-67
2023/04/11 08:34:10;;;;;;;5.95;1.02;;;;;;;;;;5037968;28;20213;-68
2023/04/11 08:36:36;;;;;;;10.20;1.40;;;;;;;;;;5037757;28;20289;-67
2023/04/11 08:39:01;;;;;;;13.43;1.90;;;;;;;;;;5035086;28;20196;-67
2023/04/11 08:41:29;;;;;;;7.78;1.17;;;;;;;;;;5038780;28;20244;-67
2023/04/11 08:43:55;;;;;;;11.30;2.30;;;;;;;;;;5046091;28;20180;-67
2023/04/11 08:46:21;;;;;;;10.63;1.30;;;;;;;;;;5040977;28;20197;-67
2023/04/11 08:48:46;;;;;;;7.15;1.60;;;;;;;;;;5032574;28;20228;-67
2023/04/11 08:51:13;;;;;;;11.68;1.42;;;;;;;;;;5034870;28;20186;-67
2023/04/11 08:53:39;;;;;;;8.00;1.30;;;;;;;;;;5037915;28;20192;-67
2023/04/11 08:56:05;;;;;;;7.28;1.77;;;;;;;;;;5034280;28;20198;-68
2023/04/11 08:58:31;;;;;;;11.98;1.67;;;;;;;;;;5046635;28;20181;-68
2023/04/11 09:01:05;;;;;;;7.90;1.63;;;;;;;;;;5035341;28;20214;-68
2023/04/11 09:03:49;;;;;;;9.02;1.75;;;;;;;;;;5038438;28;20196;-67
2023/04/11 09:06:15;;;;;;;6.43;1.10;;;;;;;;;;5039449;28;20194;-67
2023/04/11 09:08:40;;;;;;;6.90;1.02;;;;;;;;;;5027241;28;20256;-68
2023/04/11 09:11:06;;;;;;;6.60;0.90;;;;;;;;;;5040648;28;20248;-68
2023/04/11 09:13:31;;;;;;;9.23;1.30;;;;;;;;;;5035262;28;20563;-68
2023/04/11 09:16:04;;;;;;;8.68;1.42;;;;;;;;;;5045028;28;20217;-67
2023/04/11 09:18:35;;;;;;;9.48;1.25;;;;;;;;;;5031527;28;20272;-67
2023/04/11 09:21:06;;;;;;;6.93;1.50;;;;;;;;;;5044852;28;20193;-68
2023/04/11 09:23:32;;;;;;;6.72;1.40;;;;;;;;;;5046379;28;20543;-68
2023/04/11 09:25:57;;;;;;;9.82;1.63;;;;;;;;;;5030285;28;20263;-68
2023/04/11 09:28:23;;;;;;;7.78;1.20;;;;;;;;;;5040476;28;20238;-67
2023/04/11 09:30:51;;;;;;;8.50;1.73;;;;;;;;;;5031293;28;20676;-67
2023/04/11 09:33:21;;;;;;;10.35;1.45;;;;;;;;;;5032601;28;20205;-66
2023/04/11 09:35:53;;;;;;;6.97;1.15;;;;;;;;;;5035761;28;20206;-67
2023/04/11 09:38:35;;;;;;;6.30;1.10;;;;;;;;;;5042509;28;20185;-67
2023/04/11 09:41:01;;;;;;;6.25;1.10;;;;;;;;;;5035063;28;20205;-67
2023/04/11 09:43:46;;;;;;;7.70;1.50;;;;;;;;;;5031003;28;20189;-67
2023/04/11 09:46:17;;;;;;;5.43;1.00;;;;;;;;;;5041091;28;20242;-67
2023/04/11 09:48:43;;;;;;;7.38;1.63;;;;;;;;;;5043818;28;20771;-66
2023/04/11 09:51:09;;;;;;;4.22;1.10;;;;;;;;;;5044580;28;20185;-67
2023/04/11 09:53:36;;;;;;;13.75;2.65;;;;;;;;;;5038560;28;20173;-67
2023/04/11 09:56:02;;;;;;;4.93;1.30;;;;;;;;;;5047826;28;20272;-67
2023/04/11 09:58:32;;;;;;;8.13;1.38;;;;;;;;;;5042351;28;20193;-67
2023/04/11 10:01:02;;;;;;;7.07;1.60;;;;;;;;;;5047378;28;20249;-68
2023/04/11 10:03:33;;;;;;;5.38;0.73;;;;;;;;;;5034032;28;20189;-67
2023/04/11 10:06:01;;;;;;;5.57;0.90;;;;;;;;;;5045525;28;20393;-68
2023/04/11 10:08:31;;;;;;;4.78;1.00;;;;;;;;;;5039554;28;20275;-67
2023/04/11 10:11:01;;;;;;;6.78;1.17;;;;;;;;;;5042266;28;20185;-68
2023/04/11 10:13:44;;;;;;;6.65;1.45;;;;;;;;;;5040430;28;20230;-68
2023/04/11 10:16:17;;;;;;;9.27;1.23;;;;;;;;;;5043534;28;20608;-67
2023/04/11 10:18:54;;;;;;;6.03;1.00;;;;;;;;;;5041473;28;20191;-67
2023/04/11 10:21:29;;;;;;;5.47;1.20;;;;;;;;;;5034338;28;20518;-67
2023/04/11 10:24:19;;;;;;;5.43;0.90;;;;;;;;;;5041943;28;20266;-68
2023/04/11 10:26:51;;;;;;;4.97;0.80;;;;;;;;;;5034972;28;20676;-67
2023/04/11 10:29:39;;;;;;;7.13;1.00;;;;;;;;;;5048077;28;20744;-66
2023/04/11 10:32:14;;;;;;;6.90;1.33;;;;;;;;;;5040302;28;20192;-67
2023/04/11 10:35:00;;;;;;;7.22;0.98;;;;;;;;;;5036246;28;20232;-66
2023/04/11 10:37:28;;;;;;;6.43;1.08;;;;;;;;;;5036107;28;20193;-66
2023/04/11 10:39:54;;;;;;;5.93;0.98;;;;;;;;;;5037521;28;20197;-66
2023/04/11 10:42:30;;;;;;;10.77;1.52;;;;;;;;;;5038135;28;20198;-66
2023/04/11 10:45:17;;;;;;;9.27;1.17;;;;;;;;;;5042539;28;20282;-67
2023/04/11 10:47:59;;;;;;;4.80;1.10;;;;;;;;;;5037314;28;20574;-67
2023/04/11 10:50:27;;;;;;;5.45;0.90;;;;;;;;;;5041836;28;20194;-66
2023/04/11 10:52:57;;;;;;;6.88;1.20;;;;;;;;;;5030989;28;20827;-66
2023/04/11 10:55:27;;;;;;;3.33;0.77;;;;;;;;;;5022261;28;20182;-66
2023/04/11 10:58:18;;;;;;;5.03;1.02;;;;;;;;;;5028421;28;20229;-66
2023/04/11 11:00:49;;;;;;;4.25;0.90;;;;;;;;;;5031311;28;20755;-66
2023/04/11 11:03:19;;;;;;;3.88;0.70;;;;;;;;;;5039297;28;20197;-67
2023/04/11 11:06:05;;;;;;;8.52;1.30;;;;;;;;;;5040184;28;20278;-67
2023/04/11 11:08:40;;;;;;;6.07;1.05;;;;;;;;;;5037594;28;20287;-67
2023/04/11 11:11:10;;;;;;;3.03;0.80;;;;;;;;;;5037531;28;20589;-67
2023/04/11 11:13:41;;;;;;;3.80;0.77;;;;;;;;;;5031606;28;20269;-66
2023/04/11 11:16:08;;;;;;;7.80;0.98;;;;;;;;;;5045471;28;20217;-66
2023/04/11 11:18:34;;;;;;;5.35;0.93;;;;;;;;;;5036243;28;20190;-66
2023/04/11 11:21:00;;;;;;;3.47;1.10;;;;;;;;;;5041350;28;20185;-67
2023/04/11 11:23:26;;;;;;;8.30;1.30;;;;;;;;;;5033383;28;20251;-67
2023/04/11 11:25:56;;;;;;;3.17;0.68;;;;;;;;;;5046237;28;20345;-67
2023/04/11 11:28:21;;;;;;;10.52;1.75;;;;;;;;;;5034395;28;20534;-66
2023/04/11 11:30:55;;;;;;;5.43;0.93;;;;;;;;;;5048287;28;20268;-67
2023/04/11 11:33:23;;;;;;;4.25;0.90;;;;;;;;;;5029562;28;20197;-67
2023/04/11 11:35:53;;;;;;;4.60;0.75;;;;;;;;;;5036040;28;20272;-67
2023/04/11 11:38:19;;;;;;;5.53;1.08;;;;;;;;;;5034706;28;20189;-67
2023/04/11 11:40:46;;;;;;;4.07;0.95;;;;;;;;;;5033828;28;20235;-70
2023/04/11 11:43:12;;;;;;;6.13;0.90;;;;;;;;;;5038666;28;20657;-66
2023/04/11 11:45:37;;;;;;;11.55;1.30;;;;;;;;;;5043023;28;20181;-66
2023/04/11 11:48:03;;;;;;;6.75;1.02;;;;;;;;;;5043452;28;20581;-67
2023/04/11 11:50:30;;;;;;;4.85;0.70;;;;;;;;;;5033741;28;20177;-67
2023/04/11 11:53:15;;;;;;;4.60;0.65;;;;;;;;;;5045141;28;20220;-67
2023/04/11 11:55:42;;;;;;;7.40;1.02;;;;;;;;;;5043525;28;20602;-67
2023/04/11 11:58:07;;;;;;;6.95;1.00;;;;;;;;;;5047389;28;20185;-67
2023/04/11 12:00:38;;;;;;;5.32;0.98;;;;;;;;;;5046875;28;20215;-66
2023/04/11 12:03:04;;;;;;;4.80;0.70;;;;;;;;;;5044223;28;20202;-66
2023/04/11 12:05:32;;;;;;;4.30;1.08;;;;;;;;;;5029684;28;20213;-67
2023/04/11 12:07:59;;;;;;;4.72;0.93;;;;;;;;;;5028189;28;20532;-66
2023/04/11 12:10:37;;;;;;;6.10;0.80;;;;;;;;;;5038977;28;20213;-68
2023/04/11 12:13:17;;;;;;;5.18;0.85;;;;;;;;;;5043653;28;20292;-67
2023/04/11 12:15:51;;;;;;;4.78;1.20;;;;;;;;;;5030077;28;20194;-67
2023/04/11 12:18:20;;;;;;;3.95;0.95;;;;;;;;;;5027470;28;20178;-66
2023/04/11 12:20:45;;;;;;;6.35;1.00;;;;;;;;;;5041312;28;20242;-67
2023/04/11 12:23:11;;;;;;;5.82;1.33;;;;;;;;;;5031453;28;20194;-66
2023/04/11 12:25:36;;;;;;;9.35;1.35;;;;;;;;;;5028910;28;20227;-67
2023/04/11 12:28:01;;;;;;;6.68;1.17;;;;;;;;;;5040388;28;20300;-66
2023/04/11 12:30:27;;;;;;;3.45;0.82;;;;;;;;;;5031630;28;20186;-66
2023/04/11 12:32:52;;;;;;;4.38;0.63;;;;;;;;;;5038243;28;20190;-67
2023/04/11 12:35:18;;;;;;;5.57;0.88;;;;;;;;;;5029617;28;20182;-67
2023/04/11 12:37:43;;;;;;;6.13;0.85;;;;;;;;;;5030416;28;20212;-67
2023/04/11 12:40:10;;;;;;;4.57;0.82;;;;;;;;;;5040949;28;20194;-67
2023/04/11 12:42:40;;;;;;;4.75;0.90;;;;;;;;;;5040798;28;20185;-67
2023/04/11 12:45:07;;;;;;;2.80;0.93;;;;;;;;;;5040154;28;20196;-67
2023/04/11 12:47:33;;;;;;;22.00;1.25;;;;;;;;;;5037593;28;20201;-67
2023/04/11 12:49:58;;;;;;;5.68;1.20;;;;;;;;;;5028950;28;20209;-66
2023/04/11 12:52:24;;;;;;;4.35;0.80;;;;;;;;;;5038966;28;20206;-66
2023/04/11 12:54:50;;;;;;;5.38;1.10;;;;;;;;;;5033976;28;20215;-66
2023/04/11 12:57:15;;;;;;;4.88;0.95;;;;;;;;;;5041783;28;20209;-66
2023/04/11 12:59:41;;;;;;;5.07;1.05;;;;;;;;;;5031411;28;20196;-66
2023/04/11 13:02:06;;;;;;;3.88;0.95;;;;;;;;;;5027925;28;20201;-68
2023/04/11 13:04:32;;;;;;;3.83;0.70;;;;;;;;;;5029706;28;20194;-66
2023/04/11 13:07:00;;;;;;;7.78;1.20;;;;;;;;;;5035786;28;20216;-66
2023/04/11 13:09:28;;;;;;;6.68;0.80;;;;;;;;;;5035328;28;20317;-66
2023/04/11 13:11:54;;;;;;;3.83;0.98;;;;;;;;;;5030709;28;20251;-67
2023/04/11 13:14:20;;;;;;;7.30;0.82;;;;;;;;;;5030737;28;20502;-68
2023/04/11 13:16:47;;;;;;;2.97;0.75;;;;;;;;;;5037495;28;20285;-67
2023/04/11 13:19:12;;;;;;;5.28;1.10;;;;;;;;;;5041319;28;20491;-68
2023/04/11 13:21:38;;;;;;;3.83;1.00;;;;;;;;;;5047107;28;20196;-67
2023/04/11 13:24:03;;;;;;;6.05;0.95;;;;;;;;;;5043046;28;20280;-67
2023/04/11 13:26:29;;;;;;;2.70;0.77;;;;;;;;;;5045865;28;20196;-67
2023/04/11 13:28:54;;;;;;;4.00;0.85;;;;;;;;;;5039626;28;20809;-67
2023/04/11 13:31:25;;;;;;;5.95;1.17;;;;;;;;;;5040675;28;20288;-66
2023/04/11 13:33:55;;;;;;;4.95;1.15;;;;;;;;;;5043219;28;20587;-67
2023/04/11 13:36:20;;;;;;;5.60;1.30;;;;;;;;;;5034623;28;20193;-66
2023/04/11 13:38:46;;;;;;;4.70;1.00;;;;;;;;;;5045881;28;20181;-66
2023/04/11 13:41:11;;;;;;;7.07;1.05;;;;;;;;;;5036118;28;20217;-66
2023/04/11 13:43:36;;;;;;;4.05;0.85;;;;;;;;;;5038942;28;20251;-66
2023/04/11 13:46:02;;;;;;;3.90;0.95;;;;;;;;;;5040844;28;20201;-66
2023/04/11 13:48:27;;;;;;;4.55;0.90;;;;;;;;;;5037511;28;20279;-66
2023/04/11 13:50:56;;;;;;;5.15;0.70;;;;;;;;;;5030117;28;20213;-67
2023/04/11 13:53:24;;;;;;;5.38;0.85;;;;;;;;;;5037510;28;20247;-66
2023/04/11 13:55:50;;;;;;;4.30;0.90;;;;;;;;;;5032540;28;20213;-67
2023/04/11 13:58:16;;;;;;;4.30;1.10;;;;;;;;;;5048042;28;20189;-67
2023/04/11 14:00:43;;;;;;;2.65;1.00;;;;;;;;;;5032272;28;20205;-67
2023/04/11 14:03:09;;;;;;;5.30;0.70;;;;;;;;;;5043540;28;20185;-66
2023/04/11 14:05:35;;;;;;;4.93;0.85;;;;;;;;;;5036396;28;20197;-66
2023/04/11 14:08:01;;;;;;;3.20;1.00;;;;;;;;;;5035782;28;20629;-66
2023/04/11 14:10:26;;;;;;;3.67;0.90;;;;;;;;;;5037095;28;20547;-67
2023/04/11 14:12:51;;;;;;;7.18;0.90;;;;;;;;;;5040523;28;20685;-66
2023/04/11 14:15:17;;;;;;;5.43;1.17;;;;;;;;;;5037384;28;20204;-66
2023/04/11 14:17:45;;;;;;;4.82;0.98;;;;;;;;;;5044940;28;20209;-67
2023/04/11 14:20:11;;;;;;;4.68;1.08;;;;;;;;;;5032245;28;20188;-67
2023/04/11 14:22:37;;;;;;;5.03;0.98;;;;;;;;;;5044778;28;20264;-67
2023/04/11 14:25:04;;;;;;;2.20;0.63;;;;;;;;;;5040168;28;20335;-67
2023/04/11 14:27:29;;;;;;;4.55;1.08;;;;;;;;;;5034319;28;20251;-66
2023/04/11 14:29:55;;;;;;;2.80;0.90;;;;;;;;;;5032778;28;20658;-66
2023/04/11 14:32:21;;;;;;;4.60;0.85;;;;;;;;;;5039744;28;20190;-67
2023/04/11 14:34:46;;;;;;;6.07;0.88;;;;;;;;;;5035993;28;20185;-67
2023/04/11 14:37:11;;;;;;;5.07;0.85;;;;;;;;;;5041805;28;20198;-67